FDMS/MTS METAR and TAF weather

Enter ICAO airport designator
Station Type Date Time Source
FDMS METAR 2018/04/19 13:00 UTC NOAA

FDMS 191300Z 12015KT 9999 FEW035TCU 26/15 Q1015 NOSIG


Station Type Date Time Source
FDMS Decoded METAR 2018/04/19 13:00 UTC NOAA

Manzini / Matsapa Airport, Swaziland (FDMS) 26-32S 031-18E
Apr 19, 2018 - 09:00 AM EDT / 2018.04.19 1300 UTC
Wind: from the ESE (120 degrees) at 17 MPH (15 KT):0
Visibility: greater than 7 mile(s):0
Sky conditions: mostly clear
Weather: Towering cumulus clouds observed
Temperature: 78 F (26 C)
Dew Point: 59 F (15 C)
Relative Humidity: 50%
Pressure (altimeter): 29.97 in. Hg (1015 hPa)
ob: FDMS 191300Z 12015KT 9999 FEW035TCU 26/15 Q1015 NOSIG
cycle: 13

Station Type Date Time Source
FDMS TAF 2017/11/24 09:00 UTC NOAA

TAF FDMS 240700Z 2409/2418 09004KT 9999 BKN035
BECMG 2410/2412 SCT040 PROB30
TEMPO 6000 TSRA BKN025 SCT035CB


Example: see airport list